createdAt,value
2019-05-26T00:01:25.674Z,7.43
2019-05-26T00:03:00.394Z,7.13
2019-05-26T00:04:35.366Z,6.70
2019-05-26T00:06:10.251Z,7.07
2019-05-26T00:07:45.584Z,7.13
2019-05-26T00:09:20.312Z,7.00
2019-05-26T00:10:55.323Z,6.77
2019-05-26T00:12:30.037Z,7.10
2019-05-26T00:14:05.051Z,6.33
2019-05-26T00:15:39.405Z,6.77
2019-05-26T00:17:14.734Z,7.00
2019-05-26T00:18:49.083Z,7.17
2019-05-26T00:20:24.099Z,6.80
2019-05-26T00:21:58.787Z,6.80
2019-05-26T00:23:33.741Z,7.03
2019-05-26T00:25:08.970Z,7.73
2019-05-26T00:26:44.278Z,8.00
2019-05-26T00:28:18.629Z,9.53
2019-05-26T00:29:53.879Z,8.93
2019-05-26T00:31:28.222Z,8.43
2019-05-26T00:33:03.467Z,8.73
2019-05-26T00:34:37.887Z,9.07
2019-05-26T00:36:13.113Z,9.27
2019-05-26T00:37:50.005Z,9.73
2019-05-26T00:39:24.154Z,8.03
2019-05-26T00:40:59.624Z,9.90
2019-05-26T00:42:35.194Z,9.97
2019-05-26T00:44:09.629Z,10.33
2019-05-26T00:45:44.705Z,8.73
2019-05-26T00:47:19.139Z,9.37
2019-05-26T00:48:54.483Z,9.37
2019-05-26T00:50:29.301Z,8.90
2019-05-26T00:52:04.306Z,8.70
2019-05-26T00:53:38.659Z,7.90
2019-05-26T00:55:14.065Z,8.10
2019-05-26T00:56:48.410Z,8.63
2019-05-26T00:58:23.346Z,8.53
2019-05-26T00:59:57.725Z,8.17
2019-05-26T01:01:32.957Z,7.97
2019-05-26T01:03:07.407Z,7.77
2019-05-26T01:04:42.812Z,7.63
2019-05-26T01:06:17.521Z,7.67
2019-05-26T01:08:05.184Z,7.50
2019-05-26T01:09:28.614Z,7.87
2019-05-26T01:11:03.562Z,9.20
2019-05-26T01:12:37.993Z,8.43
2019-05-26T01:14:12.959Z,8.47
2019-05-26T01:15:47.323Z,8.13
2019-05-26T01:17:22.259Z,7.97
2019-05-26T01:18:57.034Z,7.90
2019-05-26T01:20:31.969Z,9.33
2019-05-26T01:22:06.365Z,8.77
2019-05-26T01:23:41.309Z,8.27
2019-05-26T01:25:15.762Z,8.30
2019-05-26T01:26:50.707Z,8.13
2019-05-26T01:28:25.371Z,7.90
2019-05-26T01:30:00.335Z,8.50
2019-05-26T01:31:34.844Z,8.50
2019-05-26T01:33:09.953Z,8.23
2019-05-26T01:34:44.731Z,8.60
2019-05-26T01:36:19.813Z,9.07
2019-05-26T01:37:54.415Z,9.23
2019-05-26T01:39:29.359Z,8.43
2019-05-26T01:41:03.739Z,8.17
2019-05-26T01:42:39.078Z,8.60
2019-05-26T01:44:13.439Z,9.30
2019-05-26T01:45:48.831Z,10.17
2019-05-26T01:47:23.278Z,8.90
2019-05-26T01:48:59.283Z,8.60
2019-05-26T01:50:33.920Z,9.30
2019-05-26T01:52:09.041Z,8.80
2019-05-26T01:53:43.866Z,8.77
2019-05-26T01:55:18.796Z,8.43
2019-05-26T01:56:53.507Z,8.50
2019-05-26T01:58:28.442Z,7.90
2019-05-26T02:00:02.838Z,8.80
2019-05-26T02:01:37.780Z,9.23
2019-05-26T02:03:12.595Z,9.23
2019-05-26T02:04:48.239Z,8.93
2019-05-26T02:06:22.691Z,8.73
2019-05-26T02:07:57.733Z,8.37
2019-05-26T02:09:32.502Z,8.83
2019-05-26T02:11:07.548Z,8.13
2019-05-26T02:12:42.254Z,8.73
2019-05-26T02:14:17.790Z,8.07
2019-05-26T02:15:52.186Z,8.00
2019-05-26T02:17:27.461Z,8.80
2019-05-26T02:19:01.858Z,8.70
2019-05-26T02:20:36.888Z,9.43
2019-05-26T02:22:11.361Z,8.53
2019-05-26T02:23:46.626Z,8.80
2019-05-26T02:25:21.749Z,8.47
2019-05-26T02:26:56.681Z,8.83
2019-05-26T02:28:31.043Z,9.03
2019-05-26T02:30:06.401Z,8.40
2019-05-26T02:31:40.839Z,8.57
2019-05-26T02:33:15.846Z,9.10
2019-05-26T02:34:50.205Z,8.53
2019-05-26T02:36:25.179Z,9.37
2019-05-26T02:38:00.040Z,9.23
2019-05-26T02:39:35.254Z,9.90
2019-05-26T02:41:09.918Z,9.87
2019-05-26T02:42:44.878Z,9.67
2019-05-26T02:44:19.547Z,9.03
2019-05-26T02:45:54.761Z,8.47
2019-05-26T02:47:29.230Z,9.83
2019-05-26T02:49:04.371Z,9.03
2019-05-26T02:50:38.850Z,9.63
2019-05-26T02:52:13.820Z,8.90
2019-05-26T02:53:48.638Z,8.23
2019-05-26T02:55:24.817Z,9.57
2019-05-26T02:56:59.255Z,9.50
2019-05-26T02:58:34.190Z,8.80
2019-05-26T03:00:11.121Z,9.33
2019-05-26T03:02:02.131Z,10.00
2019-05-26T03:03:22.378Z,10.23
2019-05-26T03:04:57.769Z,10.20
2019-05-26T03:06:33.826Z,9.67
2019-05-26T03:08:09.631Z,9.40
2019-05-26T03:09:45.831Z,9.10
2019-05-26T03:11:21.110Z,9.53
2019-05-26T03:12:57.012Z,9.60
2019-05-26T03:14:34.401Z,9.80
2019-05-26T03:16:11.265Z,9.90
2019-05-26T03:17:48.596Z,9.23
2019-05-26T03:19:26.058Z,10.13
2019-05-26T03:21:03.785Z,9.67
2019-05-26T03:22:41.503Z,9.27
2019-05-26T03:24:18.792Z,10.17
2019-05-26T03:25:53.150Z,9.60
2019-05-26T03:27:28.080Z,10.13
2019-05-26T03:29:02.740Z,9.87
2019-05-26T03:30:38.149Z,9.83
2019-05-26T03:32:12.904Z,9.97
2019-05-26T03:33:48.163Z,10.80
2019-05-26T03:35:22.571Z,10.73
2019-05-26T03:36:57.619Z,10.27
2019-05-26T03:38:31.999Z,10.10
2019-05-26T03:40:08.247Z,10.00
2019-05-26T03:41:42.709Z,10.17
2019-05-26T03:43:17.642Z,9.67
2019-05-26T03:44:51.997Z,9.50
2019-05-26T03:46:26.948Z,10.90
2019-05-26T03:48:01.336Z,10.37
2019-05-26T03:49:36.544Z,10.73
2019-05-26T03:51:11.396Z,10.53
2019-05-26T03:52:46.332Z,10.67
2019-05-26T03:54:20.682Z,11.00
2019-05-26T03:55:55.998Z,10.53
2019-05-26T03:57:30.385Z,11.17
2019-05-26T03:59:05.407Z,10.77
2019-05-26T04:00:39.763Z,11.03
2019-05-26T04:02:14.703Z,9.67
2019-05-26T04:03:49.082Z,10.63
2019-05-26T04:05:24.047Z,10.63
2019-05-26T04:06:58.408Z,10.13
2019-05-26T04:08:33.388Z,11.57
2019-05-26T04:10:08.993Z,11.50
2019-05-26T04:11:43.940Z,10.43
2019-05-26T04:13:18.616Z,9.87
2019-05-26T04:14:53.642Z,9.37
2019-05-26T04:16:28.360Z,10.63
2019-05-26T04:18:03.377Z,9.90
2019-05-26T04:19:37.722Z,9.47
2019-05-26T04:21:12.729Z,9.43
2019-05-26T04:22:47.454Z,10.10
2019-05-26T04:24:22.497Z,10.40
2019-05-26T04:25:57.002Z,11.07
2019-05-26T04:27:31.942Z,10.23
2019-05-26T04:29:06.643Z,9.80
2019-05-26T04:30:41.794Z,10.10
2019-05-26T04:32:16.202Z,9.83
2019-05-26T04:33:51.516Z,10.37
2019-05-26T04:35:26.176Z,10.50
2019-05-26T04:37:01.307Z,10.13
2019-05-26T04:38:36.397Z,10.57
2019-05-26T04:40:25.775Z,10.60
2019-05-26T04:41:47.919Z,9.93
2019-05-26T04:43:22.866Z,10.17
2019-05-26T04:44:57.238Z,10.30
2019-05-26T04:46:32.174Z,10.53
2019-05-26T04:48:06.875Z,10.63
2019-05-26T04:49:42.187Z,9.73
2019-05-26T04:51:16.642Z,10.70
2019-05-26T04:53:05.599Z,10.40
2019-05-26T04:54:28.473Z,10.43
2019-05-26T04:56:03.502Z,10.30
2019-05-26T04:57:38.237Z,10.57
2019-05-26T04:59:13.260Z,10.07
2019-05-26T05:00:47.684Z,10.00
2019-05-26T05:02:22.727Z,10.70
2019-05-26T05:03:57.110Z,10.60
2019-05-26T05:05:32.488Z,11.07
2019-05-26T05:07:07.150Z,10.23
2019-05-26T05:08:42.400Z,10.93
2019-05-26T05:10:17.102Z,10.57
2019-05-26T05:11:52.032Z,10.73
2019-05-26T05:13:26.427Z,10.23
2019-05-26T05:15:01.376Z,9.73
2019-05-26T05:16:36.096Z,10.50
2019-05-26T05:18:11.262Z,10.23
2019-05-26T05:19:45.635Z,11.17
2019-05-26T05:21:20.793Z,9.97
2019-05-26T05:22:55.258Z,9.67
2019-05-26T05:24:30.521Z,10.23
2019-05-26T05:26:05.242Z,10.67
2019-05-26T05:27:40.245Z,10.23
2019-05-26T05:29:14.878Z,9.63
2019-05-26T05:30:49.844Z,9.50
2019-05-26T05:32:24.545Z,9.27
2019-05-26T05:33:59.517Z,9.00
2019-05-26T05:35:33.982Z,8.50
2019-05-26T05:37:08.914Z,9.43
2019-05-26T05:38:43.626Z,9.13
2019-05-26T05:40:19.012Z,8.87
2019-05-26T05:41:53.446Z,8.80
2019-05-26T05:43:28.682Z,7.90
2019-05-26T05:45:03.194Z,7.37
2019-05-26T05:46:38.127Z,7.37
2019-05-26T05:48:12.824Z,7.20
2019-05-26T05:49:48.142Z,7.10
2019-05-26T05:51:22.491Z,7.17
2019-05-26T05:52:58.029Z,6.27
2019-05-26T05:54:33.026Z,6.73
2019-05-26T05:56:07.977Z,6.50
2019-05-26T05:57:42.674Z,6.03
2019-05-26T05:59:17.634Z,7.57
2019-05-26T06:00:52.302Z,7.50
2019-05-26T06:02:27.552Z,6.30
2019-05-26T06:04:02.484Z,7.27
2019-05-26T06:05:37.747Z,6.80
2019-05-26T06:07:12.170Z,7.30
2019-05-26T06:08:47.460Z,7.20
2019-05-26T06:10:22.359Z,7.23
2019-05-26T06:11:57.408Z,7.83
2019-05-26T06:13:31.738Z,6.97
2019-05-26T06:15:10.371Z,6.33
2019-05-26T06:16:44.738Z,6.47
2019-05-26T06:18:20.339Z,7.13
2019-05-26T06:19:55.595Z,6.70
2019-05-26T06:21:30.974Z,6.30
2019-05-26T06:23:06.350Z,5.83
2019-05-26T06:24:41.329Z,7.10
2019-05-26T06:26:16.046Z,6.03
2019-05-26T06:27:50.980Z,6.00
2019-05-26T06:29:25.354Z,6.33
2019-05-26T06:31:00.620Z,6.63
2019-05-26T06:32:35.797Z,6.77
2019-05-26T06:34:10.790Z,6.47
2019-05-26T06:35:45.146Z,6.40
2019-05-26T06:37:20.762Z,6.37
2019-05-26T06:38:55.558Z,5.93
2019-05-26T06:40:31.015Z,6.73
2019-05-26T06:42:06.134Z,6.73
2019-05-26T06:43:41.823Z,7.17
2019-05-26T06:45:17.789Z,5.60
2019-05-26T06:46:53.148Z,6.17
2019-05-26T06:48:27.526Z,5.90
2019-05-26T06:50:02.799Z,5.77
2019-05-26T06:51:37.194Z,5.73
2019-05-26T06:53:12.751Z,6.10
2019-05-26T06:54:47.117Z,5.83
2019-05-26T06:56:22.058Z,6.10
2019-05-26T06:57:56.751Z,5.83
2019-05-26T06:59:31.701Z,5.10
2019-05-26T07:01:06.177Z,5.77
2019-05-26T07:02:41.371Z,5.23
2019-05-26T07:04:16.867Z,5.17
2019-05-26T07:05:51.793Z,5.47
2019-05-26T07:07:26.164Z,5.83
2019-05-26T07:09:01.399Z,6.10
2019-05-26T07:10:35.747Z,5.37
2019-05-26T07:12:10.710Z,5.10
2019-05-26T07:13:45.433Z,3.93
2019-05-26T07:15:21.499Z,5.20
2019-05-26T07:16:56.378Z,5.10
2019-05-26T07:18:31.924Z,5.03
2019-05-26T07:20:07.407Z,4.73
2019-05-26T07:21:43.180Z,4.23
2019-05-26T07:23:17.967Z,4.40
2019-05-26T07:24:53.545Z,4.53
2019-05-26T07:26:28.564Z,4.07
2019-05-26T07:28:04.400Z,4.00
2019-05-26T07:29:39.679Z,4.27
2019-05-26T07:31:15.230Z,4.57
2019-05-26T07:32:50.273Z,4.20
2019-05-26T07:34:26.076Z,4.07
2019-05-26T07:36:00.843Z,4.20
2019-05-26T07:37:36.405Z,3.63
2019-05-26T07:39:10.866Z,4.00
2019-05-26T07:40:45.914Z,3.90
2019-05-26T07:42:20.547Z,3.40
2019-05-26T07:43:55.487Z,3.90
2019-05-26T07:45:30.082Z,4.20
2019-05-26T07:47:05.052Z,4.30
2019-05-26T07:48:39.957Z,3.80
2019-05-26T07:50:15.050Z,3.70
2019-05-26T07:51:49.648Z,3.90
2019-05-26T07:53:24.683Z,3.40
2019-05-26T07:54:59.432Z,3.80
2019-05-26T07:56:35.198Z,2.97
2019-05-26T07:58:10.225Z,3.70
2019-05-26T07:59:46.627Z,3.80
2019-05-26T08:01:24.317Z,3.30
2019-05-26T08:02:59.394Z,3.43
2019-05-26T08:04:34.160Z,3.67
2019-05-26T08:06:09.990Z,2.93
2019-05-26T08:07:44.829Z,3.40
2019-05-26T08:09:20.400Z,3.83
2019-05-26T08:10:55.420Z,4.13
2019-05-26T08:12:31.063Z,3.90
2019-05-26T08:14:06.428Z,3.33
2019-05-26T08:15:42.028Z,2.80
2019-05-26T08:17:16.866Z,2.43
2019-05-26T08:18:51.866Z,2.47
2019-05-26T08:20:27.360Z,2.90
2019-05-26T08:22:02.544Z,2.33
2019-05-26T08:23:36.974Z,2.50
2019-05-26T08:25:13.127Z,2.73
2019-05-26T08:26:47.718Z,3.00
2019-05-26T08:28:22.681Z,2.73
2019-05-26T08:29:57.547Z,2.73
2019-05-26T08:31:32.542Z,3.23
2019-05-26T08:33:06.898Z,3.00
2019-05-26T08:34:41.845Z,2.77
2019-05-26T08:36:16.274Z,3.00
2019-05-26T08:37:51.497Z,2.60
2019-05-26T08:39:26.102Z,2.87
2019-05-26T08:41:01.100Z,3.43
2019-05-26T08:42:44.191Z,2.93
2019-05-26T08:44:12.230Z,3.10
2019-05-26T08:45:47.004Z,2.60
2019-05-26T08:47:21.933Z,3.07
2019-05-26T08:48:56.273Z,3.17
2019-05-26T08:50:34.303Z,3.23
2019-05-26T08:52:07.930Z,2.83
2019-05-26T08:53:43.679Z,3.10
2019-05-26T08:55:18.579Z,2.90
2019-05-26T08:56:53.584Z,2.80
2019-05-26T08:58:29.410Z,2.77
2019-05-26T09:00:05.666Z,2.80
2019-05-26T09:01:40.354Z,2.70
2019-05-26T09:03:15.677Z,2.50
2019-05-26T09:04:50.516Z,2.50
2019-05-26T09:06:25.548Z,2.70
2019-05-26T09:07:59.946Z,2.80
2019-05-26T09:09:34.871Z,2.70
2019-05-26T09:11:09.350Z,2.80
2019-05-26T09:12:59.335Z,2.77
2019-05-26T09:14:20.739Z,3.00
2019-05-26T09:15:55.752Z,3.17
2019-05-26T09:17:30.182Z,3.20
2019-05-26T09:19:05.263Z,3.00
2019-05-26T09:20:39.630Z,2.77
2019-05-26T09:22:14.803Z,2.67
2019-05-26T09:23:49.249Z,3.20
2019-05-26T09:25:24.543Z,2.47
2019-05-26T09:26:59.286Z,2.27
2019-05-26T09:28:34.297Z,2.50
2019-05-26T09:30:09.236Z,2.90
2019-05-26T09:31:44.553Z,2.43
2019-05-26T09:33:19.287Z,2.87
2019-05-26T09:34:54.223Z,2.53
2019-05-26T09:36:28.923Z,2.67
2019-05-26T09:38:03.859Z,2.70
2019-05-26T09:39:38.290Z,2.63
2019-05-26T09:41:13.249Z,2.63
2019-05-26T09:42:47.870Z,2.47
2019-05-26T09:44:22.838Z,2.70
2019-05-26T09:45:57.552Z,2.83
2019-05-26T09:47:32.742Z,2.30
2019-05-26T09:49:07.492Z,2.37
2019-05-26T09:50:43.407Z,2.57
2019-05-26T09:52:18.201Z,2.40
2019-05-26T09:54:01.593Z,2.40
2019-05-26T09:55:30.749Z,2.60
2019-05-26T09:57:06.548Z,2.30
2019-05-26T09:58:41.378Z,2.77
2019-05-26T10:00:19.021Z,2.40
2019-05-26T10:01:53.849Z,2.43
2019-05-26T10:03:29.776Z,2.40
2019-05-26T10:05:05.239Z,2.00
2019-05-26T10:06:41.101Z,2.10
2019-05-26T10:08:15.896Z,2.37
2019-05-26T10:09:51.706Z,2.03
2019-05-26T10:11:26.469Z,2.30
2019-05-26T10:13:01.458Z,1.80
2019-05-26T10:14:35.853Z,2.10
2019-05-26T10:16:10.791Z,2.03
2019-05-26T10:17:48.762Z,2.10
2019-05-26T10:19:23.730Z,2.33
2019-05-26T10:20:58.366Z,2.17
2019-05-26T10:22:33.370Z,2.10
2019-05-26T10:24:08.227Z,2.10
2019-05-26T10:25:43.632Z,2.10
2019-05-26T10:27:18.601Z,1.97
2019-05-26T10:28:53.948Z,1.97
2019-05-26T10:30:28.399Z,1.70
2019-05-26T10:32:03.387Z,1.70
2019-05-26T10:33:38.008Z,2.07
2019-05-26T10:35:13.199Z,2.00
2019-05-26T10:36:47.618Z,2.20
2019-05-26T10:38:22.555Z,2.13
2019-05-26T10:39:57.031Z,2.20
2019-05-26T10:41:32.246Z,2.10
2019-05-26T10:43:06.847Z,1.90
2019-05-26T10:44:42.045Z,1.90
2019-05-26T10:46:16.432Z,1.80
2019-05-26T10:47:51.426Z,2.00
2019-05-26T10:49:26.157Z,1.57
2019-05-26T10:51:01.345Z,1.80
2019-05-26T10:52:35.930Z,1.50
2019-05-26T10:54:11.359Z,1.70
2019-05-26T10:55:45.783Z,1.50
2019-05-26T10:57:20.727Z,1.70
2019-05-26T10:58:55.216Z,2.00
2019-05-26T11:00:33.449Z,1.70
2019-05-26T11:02:07.922Z,2.00
2019-05-26T11:03:43.119Z,1.77
2019-05-26T11:05:17.991Z,1.47
2019-05-26T11:06:53.180Z,1.40
2019-05-26T11:08:27.634Z,1.67
2019-05-26T11:10:03.146Z,1.83
2019-05-26T11:11:37.555Z,1.60
2019-05-26T11:13:12.621Z,1.60
2019-05-26T11:14:47.528Z,1.73
2019-05-26T11:16:22.758Z,1.50
2019-05-26T11:17:57.578Z,1.60
2019-05-26T11:19:32.521Z,1.60
2019-05-26T11:21:07.049Z,1.47
2019-05-26T11:22:42.014Z,1.50
2019-05-26T11:24:16.383Z,1.40
2019-05-26T11:25:51.550Z,1.70
2019-05-26T11:27:25.927Z,1.47
2019-05-26T11:29:01.228Z,2.00
2019-05-26T11:30:36.545Z,1.97
2019-05-26T11:32:12.268Z,1.77
2019-05-26T11:33:46.786Z,1.90
2019-05-26T11:35:21.856Z,2.03
2019-05-26T11:36:56.574Z,2.00
2019-05-26T11:38:33.650Z,1.87
2019-05-26T11:40:08.839Z,2.10
2019-05-26T11:41:43.842Z,2.00
2019-05-26T11:43:18.185Z,2.27
2019-05-26T11:44:54.214Z,2.27
2019-05-26T11:46:28.997Z,2.17
2019-05-26T11:48:04.579Z,2.00
2019-05-26T11:49:39.394Z,1.90
2019-05-26T11:51:14.786Z,1.83
2019-05-26T11:52:49.625Z,4.00
2019-05-26T11:54:24.577Z,2.57
2019-05-26T11:55:59.374Z,2.47
2019-05-26T11:57:37.041Z,1.83
2019-05-26T11:59:10.779Z,1.90
2019-05-26T12:00:46.275Z,2.07
2019-05-26T12:02:20.799Z,1.90
2019-05-26T12:03:56.103Z,1.70
2019-05-26T12:05:30.717Z,1.90
2019-05-26T12:07:06.111Z,1.70
2019-05-26T12:08:40.713Z,1.67
2019-05-26T12:10:16.062Z,1.70
2019-05-26T12:11:50.411Z,2.03
2019-05-26T12:13:25.747Z,1.70
2019-05-26T12:15:00.089Z,1.77
2019-05-26T12:16:35.280Z,1.80
2019-05-26T12:18:09.626Z,1.83
2019-05-26T12:19:44.815Z,3.20
2019-05-26T12:21:19.182Z,3.17
2019-05-26T12:22:54.431Z,1.67
2019-05-26T12:24:28.857Z,1.47
2019-05-26T12:26:03.804Z,1.90
2019-05-26T12:27:38.464Z,2.10
2019-05-26T12:29:13.426Z,1.90
2019-05-26T12:30:48.074Z,1.70
2019-05-26T12:32:23.027Z,1.90
2019-05-26T12:33:57.628Z,1.90
2019-05-26T12:35:45.968Z,1.53
2019-05-26T12:37:20.897Z,1.80
2019-05-26T12:38:55.266Z,1.80
2019-05-26T12:40:30.203Z,2.37
2019-05-26T12:42:04.807Z,1.50
2019-05-26T12:43:40.263Z,2.00
2019-05-26T12:45:15.623Z,2.10
2019-05-26T12:46:50.803Z,1.93
2019-05-26T12:48:25.382Z,2.00
2019-05-26T12:50:00.306Z,1.70
2019-05-26T12:51:34.699Z,2.00
2019-05-26T12:53:09.798Z,1.93
2019-05-26T12:54:44.261Z,2.00
2019-05-26T12:56:19.458Z,1.60
2019-05-26T12:57:53.890Z,1.70
2019-05-26T12:59:28.943Z,1.77
2019-05-26T13:01:03.703Z,1.60
2019-05-26T13:02:38.634Z,1.73
2019-05-26T13:04:12.983Z,1.70
2019-05-26T13:05:48.022Z,1.60
2019-05-26T13:07:22.423Z,1.70
2019-05-26T13:08:57.349Z,1.70
2019-05-26T13:10:32.140Z,1.90
2019-05-26T13:12:07.173Z,1.60
2019-05-26T13:13:41.585Z,1.70
2019-05-26T13:15:16.806Z,1.67
2019-05-26T13:16:51.734Z,1.80
2019-05-26T13:18:26.956Z,1.70
2019-05-26T13:20:01.818Z,1.97
2019-05-26T13:21:36.882Z,1.70
2019-05-26T13:23:11.488Z,1.80
2019-05-26T13:24:46.461Z,1.60
2019-05-26T13:26:21.187Z,1.97
2019-05-26T13:27:56.954Z,1.90
2019-05-26T13:29:31.721Z,2.03
2019-05-26T13:31:07.361Z,1.73
2019-05-26T13:32:42.044Z,2.10
2019-05-26T13:34:17.273Z,1.90
2019-05-26T13:35:51.954Z,1.87
2019-05-26T13:37:27.160Z,1.87
2019-05-26T13:39:01.513Z,1.90
2019-05-26T13:40:36.694Z,1.97
2019-05-26T13:42:11.109Z,1.80
2019-05-26T13:43:46.038Z,1.87
2019-05-26T13:45:23.337Z,1.80
2019-05-26T13:46:58.736Z,1.83
2019-05-26T13:48:33.145Z,1.60
2019-05-26T13:50:08.999Z,2.00
2019-05-26T13:51:43.598Z,2.07
2019-05-26T13:53:18.638Z,2.00
2019-05-26T13:54:53.059Z,1.90
2019-05-26T13:56:28.434Z,1.90
2019-05-26T13:58:03.674Z,1.90
2019-05-26T13:59:39.030Z,1.77
2019-05-26T14:01:14.018Z,1.93
2019-05-26T14:02:50.356Z,1.70
2019-05-26T14:04:25.570Z,1.73
2019-05-26T14:06:00.945Z,2.20
2019-05-26T14:07:36.380Z,1.80
2019-05-26T14:09:12.675Z,2.17
2019-05-26T14:10:47.725Z,1.80
2019-05-26T14:12:23.362Z,1.50
2019-05-26T14:13:59.350Z,1.53
2019-05-26T14:15:38.512Z,1.83
2019-05-26T14:17:12.173Z,2.07
2019-05-26T14:18:47.671Z,2.00
2019-05-26T14:20:26.110Z,2.00
2019-05-26T14:22:01.063Z,1.80
2019-05-26T14:23:35.890Z,1.93
2019-05-26T14:25:11.082Z,1.90
2019-05-26T14:26:45.445Z,1.80
2019-05-26T14:28:20.380Z,2.30
2019-05-26T14:29:54.825Z,2.07
2019-05-26T14:31:29.782Z,1.90
2019-05-26T14:33:04.768Z,1.63
2019-05-26T14:34:39.726Z,1.60
2019-05-26T14:36:14.910Z,1.93
2019-05-26T14:37:49.867Z,2.07
2019-05-26T14:39:24.302Z,1.57
2019-05-26T14:40:59.511Z,1.70
2019-05-26T14:42:33.859Z,1.90
2019-05-26T14:44:08.854Z,1.60
2019-05-26T14:45:52.892Z,1.90
2019-05-26T14:47:20.357Z,1.97
2019-05-26T14:48:54.758Z,1.50
2019-05-26T14:50:30.036Z,1.90
2019-05-26T14:52:04.739Z,1.73
2019-05-26T14:53:39.950Z,1.97
2019-05-26T14:55:14.658Z,1.50
2019-05-26T14:56:49.849Z,1.80
2019-05-26T14:58:24.206Z,1.80
2019-05-26T14:59:59.367Z,1.87
2019-05-26T15:01:33.974Z,1.80
2019-05-26T15:03:08.929Z,1.53
2019-05-26T15:04:43.568Z,1.97
2019-05-26T15:06:19.178Z,1.90
2019-05-26T15:07:54.411Z,1.80
2019-05-26T15:09:29.768Z,1.77
2019-05-26T15:11:04.875Z,1.60
2019-05-26T15:12:40.294Z,1.90
2019-05-26T15:14:15.260Z,1.87
2019-05-26T15:15:50.614Z,1.80
2019-05-26T15:17:25.870Z,1.90
2019-05-26T15:19:01.219Z,1.63
2019-05-26T15:20:36.425Z,1.60
2019-05-26T15:22:11.776Z,1.60
2019-05-26T15:24:12.274Z,1.50
2019-05-26T15:25:47.170Z,1.40
2019-05-26T15:27:23.263Z,1.53
2019-05-26T15:28:58.204Z,1.60
2019-05-26T15:30:34.796Z,1.83
2019-05-26T15:32:10.217Z,1.50
2019-05-26T15:33:45.940Z,1.43
2019-05-26T15:35:20.851Z,1.67
2019-05-26T15:36:56.854Z,2.00
2019-05-26T15:38:42.298Z,2.17
2019-05-26T15:40:10.822Z,1.93
2019-05-26T15:41:45.585Z,1.50
2019-05-26T15:43:21.682Z,1.70
2019-05-26T15:44:57.302Z,1.80
2019-05-26T15:46:33.385Z,1.77
2019-05-26T15:48:08.368Z,1.70
2019-05-26T15:49:43.899Z,1.50
2019-05-26T15:51:19.271Z,1.63
2019-05-26T15:52:55.862Z,1.80
2019-05-26T15:54:31.841Z,1.93
2019-05-26T15:56:07.630Z,1.90
2019-05-26T15:57:42.769Z,1.70
2019-05-26T15:59:18.323Z,1.60
2019-05-26T16:00:53.429Z,1.73
2019-05-26T16:02:29.472Z,1.90
2019-05-26T16:04:04.937Z,1.63
2019-05-26T16:05:41.177Z,1.90
2019-05-26T16:07:16.214Z,1.93
2019-05-26T16:08:51.790Z,1.90
2019-05-26T16:10:26.904Z,2.00
2019-05-26T16:12:02.937Z,1.77
2019-05-26T16:13:38.691Z,1.87
2019-05-26T16:15:14.920Z,1.97
2019-05-26T16:16:51.425Z,2.03
2019-05-26T16:18:27.193Z,1.77
2019-05-26T16:20:01.989Z,1.90
2019-05-26T16:21:37.526Z,1.70
2019-05-26T16:23:12.608Z,2.10
2019-05-26T16:24:48.795Z,2.00
2019-05-26T16:26:23.741Z,1.60
2019-05-26T16:27:59.643Z,1.97
2019-05-26T16:29:34.651Z,1.63
2019-05-26T16:31:12.297Z,1.80
2019-05-26T16:32:46.741Z,1.73
2019-05-26T16:34:22.288Z,1.90
2019-05-26T16:35:57.056Z,2.10
2019-05-26T16:37:32.631Z,1.97
2019-05-26T16:39:09.150Z,1.80
2019-05-26T16:40:44.968Z,1.87
2019-05-26T16:42:19.891Z,1.80
2019-05-26T16:43:55.477Z,1.73
2019-05-26T16:45:30.491Z,1.73
2019-05-26T16:47:06.245Z,1.70
2019-05-26T16:48:41.111Z,2.50
2019-05-26T16:50:16.735Z,2.30
2019-05-26T16:51:51.756Z,2.50
2019-05-26T16:53:27.351Z,2.80
2019-05-26T16:55:02.186Z,2.07
2019-05-26T16:56:39.099Z,2.00
2019-05-26T16:58:16.950Z,1.80
2019-05-26T16:59:52.840Z,1.90
2019-05-26T17:01:28.076Z,1.93
2019-05-26T17:03:04.139Z,1.60
2019-05-26T17:04:39.025Z,1.80
2019-05-26T17:06:14.960Z,1.50
2019-05-26T17:07:50.605Z,1.90
2019-05-26T17:09:26.530Z,1.53
2019-05-26T17:11:01.833Z,1.60
2019-05-26T17:12:37.665Z,1.60
2019-05-26T17:14:12.463Z,1.70
2019-05-26T17:15:48.024Z,1.40
2019-05-26T17:17:22.785Z,1.47
2019-05-26T17:18:58.404Z,1.60
2019-05-26T17:20:33.223Z,1.30
2019-05-26T17:22:08.961Z,1.50
2019-05-26T17:23:43.736Z,1.30
2019-05-26T17:25:19.626Z,1.40
2019-05-26T17:26:54.667Z,1.53
2019-05-26T17:28:30.471Z,1.70
2019-05-26T17:30:06.082Z,1.67
2019-05-26T17:31:41.629Z,1.80
2019-05-26T17:33:16.086Z,1.43
2019-05-26T17:34:51.013Z,1.40
2019-05-26T17:36:25.621Z,1.57
2019-05-26T17:38:00.992Z,1.60
2019-05-26T17:39:35.956Z,1.50
2019-05-26T17:41:11.348Z,1.37
2019-05-26T17:42:46.598Z,1.50
2019-05-26T17:44:21.977Z,1.40
2019-05-26T17:45:56.930Z,1.70
2019-05-26T17:47:32.280Z,1.67
2019-05-26T17:49:07.415Z,1.60
2019-05-26T17:50:43.039Z,1.47
2019-05-26T17:52:18.018Z,1.60
2019-05-26T17:53:54.369Z,1.70
2019-05-26T17:55:29.418Z,1.40
2019-05-26T17:57:05.104Z,1.60
2019-05-26T17:58:40.661Z,1.40
2019-05-26T18:00:16.937Z,1.60
2019-05-26T18:01:52.133Z,1.60
2019-05-26T18:03:27.723Z,1.53
2019-05-26T18:05:02.980Z,1.53
2019-05-26T18:06:38.359Z,2.60
2019-05-26T18:08:13.580Z,2.10
2019-05-26T18:09:49.218Z,2.50
2019-05-26T18:11:24.253Z,4.10
2019-05-26T18:13:00.038Z,3.20
2019-05-26T18:14:35.216Z,2.90
2019-05-26T18:16:11.055Z,1.97
2019-05-26T18:17:47.679Z,2.10
2019-05-26T18:19:23.379Z,2.10
2019-05-26T18:20:58.607Z,1.80
2019-05-26T18:22:33.619Z,1.87
2019-05-26T18:24:08.026Z,1.90
2019-05-26T18:25:43.332Z,1.90
2019-05-26T18:27:18.379Z,1.70
2019-05-26T18:28:53.943Z,1.70
2019-05-26T18:30:28.407Z,1.67
2019-05-26T18:32:03.767Z,1.73
2019-05-26T18:33:38.502Z,1.77
2019-05-26T18:35:13.761Z,1.90
2019-05-26T18:36:48.161Z,1.80
2019-05-26T18:38:23.089Z,1.90
2019-05-26T18:39:57.687Z,2.00
2019-05-26T18:41:32.705Z,1.67
2019-05-26T18:43:07.064Z,2.10
2019-05-26T18:44:42.250Z,2.00
2019-05-26T18:46:16.937Z,2.00
2019-05-26T18:48:02.641Z,2.10
2019-05-26T18:49:28.196Z,2.00
2019-05-26T18:51:03.465Z,1.90
2019-05-26T18:52:38.484Z,2.00
2019-05-26T18:54:13.840Z,2.10
2019-05-26T18:55:48.255Z,1.90
2019-05-26T18:57:23.595Z,1.73
2019-05-26T18:58:57.938Z,1.87
2019-05-26T19:00:33.630Z,2.00
2019-05-26T19:02:08.106Z,1.90
2019-05-26T19:03:43.079Z,1.80
2019-05-26T19:05:32.428Z,2.00
2019-05-26T19:06:54.600Z,1.70
2019-05-26T19:08:29.490Z,2.10
2019-05-26T19:10:05.603Z,2.50
2019-05-26T19:11:40.594Z,2.60
2019-05-26T19:13:16.417Z,2.63
2019-05-26T19:14:50.856Z,2.10
2019-05-26T19:16:26.179Z,2.37
2019-05-26T19:18:01.147Z,2.43
2019-05-26T19:19:36.819Z,2.70
2019-05-26T19:21:11.796Z,2.30
2019-05-26T19:22:47.416Z,2.10
2019-05-26T19:24:22.648Z,2.43
2019-05-26T19:25:58.356Z,2.00
2019-05-26T19:27:33.623Z,2.30
2019-05-26T19:29:09.238Z,2.37
2019-05-26T19:30:45.706Z,2.13
2019-05-26T19:32:21.155Z,2.30
2019-05-26T19:33:55.618Z,2.40
2019-05-26T19:35:30.811Z,2.37
2019-05-26T19:37:05.372Z,2.20
2019-05-26T19:38:40.564Z,2.40
2019-05-26T19:40:17.705Z,2.37
2019-05-26T19:41:52.639Z,2.07
2019-05-26T19:43:27.481Z,2.10
2019-05-26T19:45:02.500Z,2.17
2019-05-26T19:46:37.174Z,2.40
2019-05-26T19:48:12.097Z,2.37
2019-05-26T19:49:46.927Z,2.10
2019-05-26T19:51:21.881Z,2.10
2019-05-26T19:52:56.289Z,2.17
2019-05-26T19:54:31.332Z,2.30
2019-05-26T19:56:06.279Z,2.20
2019-05-26T19:57:41.218Z,2.40
2019-05-26T19:59:15.939Z,2.37
2019-05-26T20:00:50.900Z,2.10
2019-05-26T20:02:25.290Z,2.57
2019-05-26T20:04:00.529Z,2.37
2019-05-26T20:05:35.219Z,2.17
2019-05-26T20:07:10.242Z,2.00
2019-05-26T20:08:44.843Z,1.73
2019-05-26T20:10:20.378Z,2.00
2019-05-26T20:11:54.859Z,2.23
2019-05-26T20:13:30.503Z,2.17
2019-05-26T20:15:07.396Z,2.33
2019-05-26T20:16:42.357Z,2.00
2019-05-26T20:18:16.795Z,2.00
2019-05-26T20:19:52.258Z,2.10
2019-05-26T20:21:26.682Z,2.07
2019-05-26T20:23:01.702Z,2.20
2019-05-26T20:24:36.054Z,2.33
2019-05-26T20:26:10.987Z,2.20
2019-05-26T20:27:45.559Z,1.87
2019-05-26T20:29:20.553Z,1.87
2019-05-26T20:30:55.146Z,2.00
2019-05-26T20:32:30.093Z,2.00
2019-05-26T20:34:04.642Z,1.80
2019-05-26T20:35:39.566Z,1.90
2019-05-26T20:37:14.150Z,1.80
2019-05-26T20:38:49.081Z,2.00
2019-05-26T20:40:23.453Z,1.90
2019-05-26T20:41:58.395Z,2.03
2019-05-26T20:43:32.906Z,1.80
2019-05-26T20:45:08.835Z,1.70
2019-05-26T20:46:43.165Z,2.30
2019-05-26T20:48:18.320Z,1.93
2019-05-26T20:49:52.682Z,2.10
2019-05-26T20:51:27.637Z,2.10
2019-05-26T20:53:02.081Z,2.10
2019-05-26T20:54:37.033Z,2.10
2019-05-26T20:56:12.313Z,2.00
2019-05-26T20:57:47.472Z,1.80
2019-05-26T20:59:21.849Z,2.00
2019-05-26T21:00:56.792Z,1.80
2019-05-26T21:02:31.199Z,1.93
2019-05-26T21:04:06.150Z,2.00